createdAt,value
2018-09-26T00:00:28.861Z,5.20
2018-09-26T00:03:03.281Z,5.30
2018-09-26T00:05:33.445Z,5.93
2018-09-26T00:08:03.724Z,5.70
2018-09-26T00:10:33.952Z,5.80
2018-09-26T00:13:04.180Z,5.17
2018-09-26T00:15:34.403Z,5.67
2018-09-26T00:18:04.599Z,5.27
2018-09-26T00:20:34.780Z,5.47
2018-09-26T00:23:05.159Z,4.70
2018-09-26T00:25:36.073Z,5.40
2018-09-26T00:28:06.262Z,4.53
2018-09-26T00:30:36.511Z,4.63
2018-09-26T00:33:06.777Z,4.90
2018-09-26T00:35:36.962Z,5.00
2018-09-26T00:38:07.166Z,4.30
2018-09-26T00:40:37.412Z,5.03
2018-09-26T00:43:07.720Z,4.03
2018-09-26T00:45:37.959Z,4.30
2018-09-26T00:48:07.740Z,4.67
2018-09-26T00:50:37.961Z,4.37
2018-09-26T00:53:08.252Z,4.40
2018-09-26T00:55:38.440Z,3.67
2018-09-26T00:58:08.690Z,4.33
2018-09-26T01:00:39.704Z,3.70
2018-09-26T01:03:09.992Z,4.43
2018-09-26T01:05:40.180Z,3.83
2018-09-26T01:08:10.454Z,4.10
2018-09-26T01:10:40.710Z,3.97
2018-09-26T01:13:10.949Z,3.77
2018-09-26T01:15:41.945Z,4.07
2018-09-26T01:18:12.360Z,3.90
2018-09-26T01:20:46.072Z,4.00
2018-09-26T01:23:16.336Z,3.40
2018-09-26T01:25:46.540Z,4.37
2018-09-26T01:28:16.746Z,3.80
2018-09-26T01:30:46.953Z,3.77
2018-09-26T01:33:17.156Z,3.83
2018-09-26T01:35:47.368Z,4.20
2018-09-26T01:38:17.830Z,3.93
2018-09-26T01:40:48.017Z,3.77
2018-09-26T01:43:18.141Z,3.67
2018-09-26T01:45:48.311Z,3.60
2018-09-26T01:48:18.481Z,4.07
2018-09-26T01:50:48.701Z,3.67
2018-09-26T01:53:18.948Z,3.87
2018-09-26T01:55:49.184Z,3.90
2018-09-26T01:58:19.372Z,3.97
2018-09-26T02:00:49.704Z,4.17
2018-09-26T02:03:19.877Z,3.80
2018-09-26T02:05:50.082Z,3.40
2018-09-26T02:08:20.252Z,3.80
2018-09-26T02:10:50.492Z,4.47
2018-09-26T02:13:20.692Z,3.93
2018-09-26T02:15:50.954Z,4.03
2018-09-26T02:18:21.261Z,3.80
2018-09-26T02:20:51.504Z,3.90
2018-09-26T02:23:28.139Z,4.17
2018-09-26T02:25:58.320Z,3.97
2018-09-26T02:28:28.559Z,3.30
2018-09-26T02:30:58.780Z,3.47
2018-09-26T02:33:29.437Z,3.50
2018-09-26T02:35:59.716Z,3.97
2018-09-26T02:38:36.348Z,4.20
2018-09-26T02:41:06.623Z,4.10
2018-09-26T02:43:36.877Z,3.83
2018-09-26T02:46:07.034Z,3.43
2018-09-26T02:48:42.268Z,3.60
2018-09-26T02:51:12.417Z,3.90
2018-09-26T02:53:42.675Z,3.57
2018-09-26T02:56:13.592Z,3.50
2018-09-26T02:58:43.876Z,3.73
2018-09-26T03:01:15.699Z,3.57
2018-09-26T03:04:01.506Z,3.63
2018-09-26T03:06:35.099Z,3.63
2018-09-26T03:09:06.563Z,3.40
2018-09-26T03:11:43.196Z,3.60
2018-09-26T03:14:13.347Z,3.80
2018-09-26T03:16:43.520Z,3.13
2018-09-26T03:19:13.765Z,3.77
2018-09-26T03:21:43.901Z,3.50
2018-09-26T03:24:14.138Z,2.87
2018-09-26T03:26:44.309Z,3.23
2018-09-26T03:29:14.388Z,3.17
2018-09-26T03:31:44.963Z,3.40
2018-09-26T03:34:15.080Z,3.10
2018-09-26T03:36:45.211Z,3.57
2018-09-26T03:39:15.196Z,3.27
2018-09-26T03:41:45.320Z,3.40
2018-09-26T03:44:15.520Z,3.20
2018-09-26T03:46:45.769Z,3.03
2018-09-26T03:49:16.084Z,6.97
2018-09-26T03:51:46.377Z,5.30
2018-09-26T03:54:16.654Z,3.20
2018-09-26T03:56:46.904Z,2.90
2018-09-26T03:59:17.179Z,3.27
2018-09-26T04:01:47.352Z,3.10
2018-09-26T04:04:17.563Z,3.07
2018-09-26T04:06:47.839Z,3.13
2018-09-26T04:09:18.161Z,2.80
2018-09-26T04:11:48.447Z,2.83
2018-09-26T04:14:18.680Z,2.93
2018-09-26T04:16:48.999Z,2.60
2018-09-26T04:19:19.477Z,2.30
2018-09-26T04:24:58.263Z,2.83
2018-09-26T04:27:30.556Z,2.73
2018-09-26T04:30:09.985Z,2.50
2018-09-26T04:36:03.341Z,2.60
2018-09-26T04:38:33.805Z,2.43
2018-09-26T04:41:05.024Z,2.30
2018-09-26T04:43:35.283Z,2.63
2018-09-26T04:46:05.634Z,2.70
2018-09-26T04:49:30.689Z,2.60
2018-09-26T04:52:01.031Z,2.37
2018-09-26T04:54:32.516Z,2.50
2018-09-26T04:57:02.979Z,2.37
2018-09-26T04:59:33.259Z,2.53
2018-09-26T05:02:03.653Z,2.27
2018-09-26T05:04:34.045Z,2.57
2018-09-26T05:07:04.598Z,6.37
2018-09-26T05:09:35.092Z,2.60
2018-09-26T05:12:05.517Z,2.30
2018-09-26T05:14:35.880Z,2.70
2018-09-26T05:17:06.440Z,2.23
2018-09-26T05:19:36.858Z,2.47
2018-09-26T05:22:07.672Z,2.60
2018-09-26T05:24:38.152Z,2.60
2018-09-26T05:27:08.841Z,2.90
2018-09-26T05:29:39.301Z,2.40
2018-09-26T05:32:09.831Z,2.73
2018-09-26T05:34:40.280Z,2.73
2018-09-26T05:37:10.711Z,2.43
2018-09-26T05:39:41.259Z,2.90
2018-09-26T05:42:11.742Z,2.10
2018-09-26T05:44:42.176Z,2.23
2018-09-26T05:47:12.673Z,2.37
2018-09-26T05:49:43.090Z,2.53
2018-09-26T05:52:13.680Z,2.50
2018-09-26T05:54:44.134Z,2.27
2018-09-26T05:57:14.951Z,2.10
2018-09-26T05:59:45.724Z,2.40
2018-09-26T06:02:16.373Z,2.13
2018-09-26T06:04:47.047Z,2.47
2018-09-26T06:07:17.741Z,2.47
2018-09-26T06:09:48.307Z,2.30
2018-09-26T06:12:18.979Z,2.07
2018-09-26T06:14:49.819Z,2.13
2018-09-26T06:17:20.341Z,3.00
2018-09-26T06:19:50.962Z,2.23
2018-09-26T06:22:21.678Z,2.13
2018-09-26T06:24:52.492Z,2.50
2018-09-26T06:27:23.278Z,2.20
2018-09-26T06:29:54.111Z,2.30
2018-09-26T06:32:25.035Z,2.00
2018-09-26T06:34:55.814Z,2.20
2018-09-26T06:37:26.543Z,2.00
2018-09-26T06:39:58.600Z,2.40
2018-09-26T06:42:29.574Z,2.40
2018-09-26T06:45:10.571Z,2.17
2018-09-26T06:47:41.680Z,2.10
2018-09-26T06:50:12.450Z,2.27
2018-09-26T06:52:43.053Z,2.20
2018-09-26T06:55:13.704Z,2.03
2018-09-26T06:57:44.221Z,2.23
2018-09-26T07:00:14.745Z,2.80
2018-09-26T07:02:45.352Z,2.70
2018-09-26T07:05:15.840Z,2.53
2018-09-26T07:07:46.264Z,2.00
2018-09-26T07:10:16.628Z,2.30
2018-09-26T07:12:47.053Z,2.87
2018-09-26T07:15:17.538Z,2.37
2018-09-26T07:17:47.995Z,2.60
2018-09-26T07:20:18.334Z,2.57
2018-09-26T07:22:48.817Z,2.50
2018-09-26T07:25:19.843Z,2.30
2018-09-26T07:27:50.434Z,2.43
2018-09-26T07:30:20.819Z,2.60
2018-09-26T07:32:51.551Z,2.50
2018-09-26T07:35:21.848Z,2.20
2018-09-26T07:37:52.322Z,2.30
2018-09-26T07:40:22.885Z,2.10
2018-09-26T07:42:53.393Z,2.13
2018-09-26T07:45:23.913Z,2.37
2018-09-26T07:47:54.384Z,1.97
2018-09-26T07:50:24.848Z,2.30
2018-09-26T07:52:55.325Z,2.00
2018-09-26T07:55:25.763Z,2.37
2018-09-26T07:57:56.178Z,1.93
2018-09-26T08:00:26.638Z,2.27
2018-09-26T08:02:57.247Z,1.90
2018-09-26T08:05:27.655Z,2.10
2018-09-26T08:07:58.120Z,2.30
2018-09-26T08:10:28.484Z,2.30
2018-09-26T08:12:59.006Z,2.00
2018-09-26T08:15:29.554Z,2.20
2018-09-26T08:18:00.089Z,1.80
2018-09-26T08:20:30.558Z,2.13
2018-09-26T08:23:01.112Z,2.20
2018-09-26T08:25:31.732Z,2.20
2018-09-26T08:28:02.086Z,2.10
2018-09-26T08:30:32.542Z,1.70
2018-09-26T08:33:03.136Z,1.83
2018-09-26T08:35:33.710Z,2.10
2018-09-26T08:38:04.188Z,2.20
2018-09-26T08:40:34.650Z,1.60
2018-09-26T08:43:05.104Z,1.80
2018-09-26T08:45:35.576Z,2.07
2018-09-26T08:48:06.141Z,1.80
2018-09-26T08:50:36.568Z,2.10
2018-09-26T08:53:07.227Z,1.90
2018-09-26T08:55:37.700Z,1.63
2018-09-26T08:58:08.162Z,1.60
2018-09-26T09:00:38.874Z,1.63
2018-09-26T09:03:09.390Z,2.00
2018-09-26T09:05:39.817Z,1.50
2018-09-26T09:08:10.300Z,1.50
2018-09-26T09:10:40.720Z,1.60
2018-09-26T09:13:11.220Z,1.67
2018-09-26T09:15:41.686Z,1.63
2018-09-26T09:18:12.476Z,1.67
2018-09-26T09:20:42.983Z,1.57
2018-09-26T09:23:13.607Z,1.60
2018-09-26T09:25:44.169Z,1.70
2018-09-26T09:28:14.701Z,1.40
2018-09-26T09:30:45.177Z,1.50
2018-09-26T09:33:15.800Z,1.50
2018-09-26T09:35:46.433Z,1.50
2018-09-26T09:38:16.870Z,1.60
2018-09-26T09:40:47.371Z,1.67
2018-09-26T09:43:17.859Z,1.47
2018-09-26T09:45:48.280Z,1.53
2018-09-26T09:48:18.684Z,1.63
2018-09-26T09:50:49.247Z,1.50
2018-09-26T09:53:20.566Z,1.77
2018-09-26T09:55:52.212Z,1.60
2018-09-26T09:58:23.215Z,1.50
2018-09-26T10:00:58.572Z,1.50
2018-09-26T10:03:29.005Z,1.77
2018-09-26T10:05:59.501Z,1.93
2018-09-26T10:08:29.934Z,1.93
2018-09-26T10:11:00.293Z,2.10
2018-09-26T10:13:30.788Z,1.97
2018-09-26T10:16:01.156Z,1.73
2018-09-26T10:18:31.607Z,1.87
2018-09-26T10:21:02.081Z,1.67
2018-09-26T10:23:32.637Z,1.90
2018-09-26T10:26:02.936Z,1.80
2018-09-26T10:28:33.253Z,1.67
2018-09-26T10:31:03.559Z,1.80
2018-09-26T10:33:34.184Z,1.53
2018-09-26T10:36:04.613Z,1.80
2018-09-26T10:38:35.263Z,1.60
2018-09-26T10:41:05.696Z,1.73
2018-09-26T10:43:36.135Z,1.53
2018-09-26T10:46:06.544Z,1.60
2018-09-26T10:48:36.894Z,1.53
2018-09-26T10:51:17.005Z,1.70
2018-09-26T10:53:47.701Z,1.73
2018-09-26T10:56:18.695Z,1.60
2018-09-26T10:58:49.304Z,1.70
2018-09-26T11:01:19.832Z,1.77
2018-09-26T11:03:52.468Z,1.70
2018-09-26T11:06:23.244Z,1.63
2018-09-26T11:08:54.379Z,1.60
2018-09-26T11:11:25.270Z,1.70
2018-09-26T11:13:56.963Z,1.57
2018-09-26T14:25:20.395Z,2.70
2018-09-26T15:30:01.846Z,1.50
2018-09-26T15:38:39.926Z,1.50
2018-09-26T15:44:11.313Z,1.80
2018-09-26T16:03:06.091Z,1.80
2018-09-26T16:05:36.888Z,2.30
2018-09-26T16:08:09.391Z,1.70
2018-09-26T16:10:39.884Z,2.00
2018-09-26T16:13:13.217Z,2.20
2018-09-26T16:15:44.617Z,2.03
2018-09-26T16:18:18.714Z,2.00
2018-09-26T16:20:56.449Z,1.93
2018-09-26T16:23:27.107Z,2.10
2018-09-26T16:25:57.707Z,2.00
2018-09-26T16:28:33.381Z,1.70
2018-09-26T16:31:04.206Z,1.97
2018-09-26T16:33:36.220Z,1.97
2018-09-26T16:36:43.747Z,1.90
2018-09-26T16:39:15.679Z,1.93
2018-09-26T16:41:49.860Z,1.70
2018-09-26T16:44:20.633Z,2.00
2018-09-26T16:46:51.496Z,2.10
2018-09-26T16:49:22.581Z,1.77
2018-09-26T16:52:06.571Z,1.80
2018-09-26T16:57:38.992Z,1.83
2018-09-26T17:00:09.745Z,2.10
2018-09-26T17:02:40.443Z,1.90
2018-09-26T17:05:11.084Z,1.97
2018-09-26T17:07:41.733Z,1.97
2018-09-26T17:10:12.347Z,2.47
2018-09-26T17:12:43.123Z,1.97
2018-09-26T17:15:15.352Z,2.07
2018-09-26T17:17:45.853Z,2.00
2018-09-26T17:20:16.450Z,1.90
2018-09-26T17:22:47.037Z,2.00
2018-09-26T17:25:18.134Z,2.37
2018-09-26T17:27:48.613Z,2.00
2018-09-26T17:30:19.350Z,2.00
2018-09-26T17:32:50.311Z,1.80
2018-09-26T17:35:20.994Z,1.80
2018-09-26T17:37:51.948Z,1.73
2018-09-26T17:40:22.575Z,2.10
2018-09-26T17:42:53.191Z,2.20
2018-09-26T17:45:25.546Z,2.13
2018-09-26T17:47:56.413Z,2.23
2018-09-26T17:50:27.066Z,2.17
2018-09-26T17:52:57.796Z,2.03
2018-09-26T17:55:28.504Z,2.30
2018-09-26T17:57:59.565Z,1.93
2018-09-26T18:00:30.311Z,2.20
2018-09-26T18:03:00.835Z,1.83
2018-09-26T18:05:31.388Z,2.10
2018-09-26T18:08:02.325Z,2.50
2018-09-26T18:10:34.075Z,1.93
2018-09-26T18:13:04.950Z,2.07
2018-09-26T18:15:36.564Z,2.13
2018-09-26T18:18:08.063Z,2.50
2018-09-26T18:20:39.891Z,2.23
2018-09-26T18:23:11.115Z,2.37
2018-09-26T18:25:41.747Z,2.57
2018-09-26T18:28:12.296Z,2.67
2018-09-26T18:30:42.851Z,2.23
2018-09-26T18:33:13.550Z,2.20
2018-09-26T18:35:44.054Z,2.30
2018-09-26T18:38:14.682Z,2.17
2018-09-26T18:40:45.210Z,2.30
2018-09-26T18:43:15.813Z,2.50
2018-09-26T18:45:46.346Z,1.93
2018-09-26T18:48:17.129Z,2.63
2018-09-26T18:50:47.844Z,2.57
2018-09-26T18:53:18.519Z,2.30
2018-09-26T18:55:49.083Z,2.07
2018-09-26T18:58:19.771Z,2.00
2018-09-26T19:00:50.363Z,2.00
2018-09-26T19:03:20.952Z,2.50
2018-09-26T19:05:51.471Z,2.20
2018-09-26T19:08:22.075Z,2.67
2018-09-26T19:10:52.632Z,3.03
2018-09-26T19:13:23.213Z,2.93
2018-09-26T19:15:53.833Z,3.00
2018-09-26T19:18:24.492Z,2.63
2018-09-26T19:20:55.478Z,2.30
2018-09-26T19:23:26.102Z,2.33
2018-09-26T19:25:56.782Z,2.13
2018-09-26T19:28:27.504Z,2.53
2018-09-26T19:30:58.347Z,2.50
2018-09-26T19:33:29.157Z,2.70
2018-09-26T19:35:59.703Z,2.43
2018-09-26T19:38:30.372Z,2.63
2018-09-26T19:41:01.775Z,2.60
2018-09-26T19:43:38.170Z,2.90
2018-09-26T19:46:08.594Z,2.70
2018-09-26T19:48:38.935Z,2.67
2018-09-26T19:51:09.154Z,2.97
2018-09-26T19:53:39.075Z,3.03
2018-09-26T19:56:09.228Z,2.90
2018-09-26T19:58:39.187Z,3.47
2018-09-26T20:01:09.292Z,2.93
2018-09-26T20:03:39.414Z,3.17
2018-09-26T20:06:10.582Z,3.17
2018-09-26T20:08:40.547Z,3.23
2018-09-26T20:11:10.430Z,3.40
2018-09-26T20:13:40.493Z,3.40
2018-09-26T20:16:10.489Z,3.27
2018-09-26T20:18:40.862Z,3.00
2018-09-26T20:21:10.911Z,3.47
2018-09-26T20:23:41.137Z,2.83
2018-09-26T20:26:11.173Z,3.33
2018-09-26T20:28:41.297Z,3.07
2018-09-26T20:31:11.482Z,2.60
2018-09-26T20:33:41.483Z,2.97
2018-09-26T20:36:11.607Z,2.75
2018-09-26T20:38:41.681Z,2.40
2018-09-26T20:41:12.750Z,2.57
2018-09-26T20:43:42.817Z,2.80
2018-09-26T20:46:12.886Z,2.43
2018-09-26T20:48:43.016Z,2.70
2018-09-26T20:51:13.143Z,2.67
2018-09-26T20:53:43.224Z,2.83
2018-09-26T20:56:13.206Z,3.13
2018-09-26T20:58:43.502Z,3.10
2018-09-26T21:01:13.533Z,3.25
2018-09-26T21:03:43.537Z,2.63
2018-09-26T21:06:13.552Z,3.03
2018-09-26T21:08:43.611Z,2.90
2018-09-26T21:11:13.699Z,2.80
2018-09-26T21:13:43.850Z,2.90
2018-09-26T21:16:13.902Z,3.30
2018-09-26T21:18:44.023Z,3.00
2018-09-26T21:21:14.032Z,3.17
2018-09-26T21:23:44.109Z,2.80
2018-09-26T21:26:14.097Z,3.23
2018-09-26T21:28:44.040Z,3.40
2018-09-26T21:31:14.141Z,2.90
2018-09-26T21:33:47.532Z,3.10
2018-09-26T21:36:17.547Z,2.97
2018-09-26T21:38:47.606Z,2.97
2018-09-26T21:41:17.648Z,3.37
2018-09-26T21:43:47.630Z,3.00
2018-09-26T21:46:17.662Z,3.20
2018-09-26T21:48:47.685Z,3.20
2018-09-26T21:51:17.713Z,3.50
2018-09-26T21:53:47.820Z,3.43
2018-09-26T21:56:17.802Z,3.67
2018-09-26T21:58:47.791Z,3.30
2018-09-26T22:01:18.426Z,3.40
2018-09-26T22:03:48.410Z,2.83
2018-09-26T22:06:18.430Z,3.13
2018-09-26T22:08:48.537Z,3.27
2018-09-26T22:11:18.606Z,3.40
2018-09-26T22:13:48.902Z,3.20
2018-09-26T22:16:18.920Z,3.57
2018-09-26T22:18:49.280Z,3.27
2018-09-26T22:21:19.305Z,3.33
2018-09-26T22:23:49.265Z,3.43
2018-09-26T22:26:19.402Z,3.67
2018-09-26T22:28:49.348Z,2.90
2018-09-26T22:31:19.459Z,3.33
2018-09-26T22:33:49.429Z,3.13
2018-09-26T22:36:19.490Z,3.33
2018-09-26T22:38:49.363Z,3.70
2018-09-26T22:41:19.402Z,3.73
2018-09-26T22:43:49.312Z,3.40
2018-09-26T22:46:19.360Z,2.97
2018-09-26T22:48:49.223Z,3.87
2018-09-26T22:51:19.221Z,3.40
2018-09-26T22:53:49.202Z,3.50
2018-09-26T22:56:19.204Z,3.58
2018-09-26T22:58:49.147Z,3.23
2018-09-26T23:01:19.454Z,3.60
2018-09-26T23:03:49.369Z,3.77
2018-09-26T23:06:19.327Z,4.03
2018-09-26T23:08:49.280Z,3.77
2018-09-26T23:11:19.243Z,3.67
2018-09-26T23:13:49.191Z,4.27
2018-09-26T23:16:19.310Z,3.57
2018-09-26T23:18:49.284Z,3.50
2018-09-26T23:21:19.332Z,4.03
2018-09-26T23:23:49.264Z,3.10
2018-09-26T23:26:19.210Z,3.80
2018-09-26T23:28:49.202Z,3.83
2018-09-26T23:31:19.190Z,3.50
2018-09-26T23:33:49.211Z,3.80
2018-09-26T23:36:19.220Z,3.30
2018-09-26T23:38:49.164Z,3.90
2018-09-26T23:41:19.451Z,3.93
2018-09-26T23:43:49.370Z,3.67
2018-09-26T23:46:19.340Z,3.60
2018-09-26T23:48:49.303Z,3.50
2018-09-26T23:51:19.276Z,3.97
2018-09-26T23:53:49.387Z,3.33
2018-09-26T23:56:19.552Z,3.90
2018-09-26T23:58:49.504Z,3.57
